Observations for NORWICH WEA CNTRE, United Kingdom (EGSH)

EGSH 180520Z 23008KT 9999 FEW011 BKN035 16/14 Q1015 NOSIG   
EGSH 180450Z AUTO 23008KT 9999 BKN010/// OVC035/// 16/14 Q1015  
EGSH 180420Z AUTO 23008KT 200V270 9999 BKN010/// OVC035/// 16/14 Q1015  
EGSH 180350Z AUTO 23009KT 9999 SCT011/// OVC035/// 16/14 Q1015  
EGSH 180320Z AUTO 23008KT 200V270 9999 BKN011/// OVC015/// 16/14 Q1015  
EGSH 180250Z AUTO 23008KT 9999 BKN010/// OVC039/// 16/14 Q1015  
EGSH 180220Z AUTO 22008KT 190V250 9999 OVC009/// 16/14 Q1015
EGSH 180150Z AUTO 22010KT 9999 OVC009/// 16/14 Q1015
EGSH 180120Z AUTO 21010KT 9999 OVC010/// 16/14 Q1015
EGSH 180050Z AUTO 21009KT 180V240 9999 OVC011/// 16/14 Q1015
EGSH 180020Z AUTO 21009KT 9999 OVC013/// 16/13 Q1015
EGSH 172350Z AUTO 21010KT 9999 BKN015/// OVC047/// 16/13 Q1015  
EGSH 172320Z AUTO 21009KT 9999 BKN040/// 15/13 Q1015
EGSH 172250Z AUTO 21011KT 9999 FEW031/// BKN049/// 16/13 Q1015  
EGSH 172220Z AUTO 22010KT 9999 FEW024/// SCT036/// 16/13 Q1015  
EGSH 172150Z 22011KT 9999 FEW028 16/12 Q1015 NOSIG  
EGSH 172120Z 21011KT 9999 FEW028 16/12 Q1015 NOSIG  
EGSH 172050Z 21009KT 9999 BKN030 16/12 Q1015 NOSIG  
EGSH 172020Z 20008KT 180V240 9999 BKN030 16/13 Q1015 NOSIG  
EGSH 171950Z 21008KT 9999 SCT038 16/12 Q1015 NOSIG  
EGSH 171920Z 23012KT 190V260 9999 SCT024 BKN043 17/12 Q1015 NOSIG   
EGSH 171850Z 22009KT 190V250 9999 BKN030 17/12 Q1015 NOSIG  
EGSH 171820Z 21008KT 9999 BKN033 17/11 Q1015 NOSIG  
EGSH 171750Z 21010KT 9999 BKN033 18/11 Q1015 NOSIG  
EGSH 171720Z 23007KT 9999 SCT035 SCT040 18/11 Q1015 NOSIG   
EGSH 171650Z 23008KT 9999 BKN042 18/11 Q1015 NOSIG  
EGSH 171620Z 24011KT 9999 BKN038 18/11 Q1015 NOSIG  
EGSH 171550Z 23008KT 9999 SCT038 18/11 Q1015 NOSIG  
EGSH 171520Z 21008KT 170V240 9999 SCT038 19/11 Q1015 NOSIG  
EGSH 171450Z 21010KT 160V240 9999 SCT035 SCT042 17/11 Q1015 NOSIG   
EGSH 171420Z 22010KT 9999 FEW047 18/11 Q1015
EGSH 171350Z 23009KT 190V270 9999 FEW042 17/11 Q1015 NOSIG  
EGSH 171320Z 23008KT 190V270 9999 FEW042 18/11 Q1015 NOSIG  
EGSH 171250Z 24007KT 200V280 9999 FEW034 17/10 Q1015 NOSIG  
EGSH 171220Z 23009KT 190V270 9999 FEW034 16/11 Q1015 NOSIG  
EGSH 171150Z 24008KT 200V270 9999 FEW046 17/11 Q1015 NOSIG  
EGSH 171120Z 24009KT 9999 FEW045 16/11 Q1015 NOSIG  
EGSH 171050Z 24013KT 9999 SCT027 17/11 Q1014 NOSIG  
EGSH 170950Z 26012KT 220V300 9999 SCT027 17/10 Q1014 NOSIG  
EGSH 170920Z 26013KT 9999 BKN022 17/11 Q1014 NOSIG  
EGSH 170850Z 25012KT 9999 SCT025 16/11 Q1014 NOSIG  
EGSH 170820Z 25012KT 9999 FEW019 SCT024 16/11 Q1014 NOSIG   
EGSH 170750Z 24012KT 200V280 9999 FEW025 16/11 Q1014 NOSIG  
EGSH 170720Z 23010KT CAVOK 15/11 Q1014 NOSIG
EGSH 170650Z 24009KT CAVOK 14/11 Q1014 NOSIG
EGSH 170620Z 23008KT CAVOK 13/11 Q1014 NOSIG
EGSH 170550Z 24008KT CAVOK 13/10 Q1014 NOSIG
EGSH 170520Z 24009KT CAVOK 12/10 Q1013 NOSIG
EGSH 170450Z AUTO 23007KT 9999 NCD 12/10 Q1013